sensor_id;sensor_type;location;lat;lon;timestamp;temperature;humidity
76263;DHT22;65080;50.908;6.916;2022-12-29T00:01:51;12.60;71.10
76263;DHT22;65080;50.908;6.916;2022-12-29T00:04:19;12.50;71.30
76263;DHT22;65080;50.908;6.916;2022-12-29T00:06:48;12.60;71.60
76263;DHT22;65080;50.908;6.916;2022-12-29T00:09:16;12.60;71.70
76263;DHT22;65080;50.908;6.916;2022-12-29T00:11:44;12.50;71.80
76263;DHT22;65080;50.908;6.916;2022-12-29T00:14:13;12.50;72.00
76263;DHT22;65080;50.908;6.916;2022-12-29T00:17:00;12.50;72.10
76263;DHT22;65080;50.908;6.916;2022-12-29T00:19:29;12.60;72.30
76263;DHT22;65080;50.908;6.916;2022-12-29T00:22:26;12.60;72.40
76263;DHT22;65080;50.908;6.916;2022-12-29T00:25:12;12.60;72.40
76263;DHT22;65080;50.908;6.916;2022-12-29T00:27:59;12.60;72.50
76263;DHT22;65080;50.908;6.916;2022-12-29T00:30:45;12.60;72.50
76263;DHT22;65080;50.908;6.916;2022-12-29T00:33:33;12.60;72.50
76263;DHT22;65080;50.908;6.916;2022-12-29T00:36:24;12.70;72.50
76263;DHT22;65080;50.908;6.916;2022-12-29T00:38:57;12.70;72.50
76263;DHT22;65080;50.908;6.916;2022-12-29T00:41:45;12.80;72.50
76263;DHT22;65080;50.908;6.916;2022-12-29T00:44:31;12.80;72.40
76263;DHT22;65080;50.908;6.916;2022-12-29T00:47:00;12.80;72.30
76263;DHT22;65080;50.908;6.916;2022-12-29T00:49:31;12.80;72.20
76263;DHT22;65080;50.908;6.916;2022-12-29T00:52:01;12.90;72.20
76263;DHT22;65080;50.908;6.916;2022-12-29T00:54:32;12.90;72.00
76263;DHT22;65080;50.908;6.916;2022-12-29T00:57:01;13.00;72.00
76263;DHT22;65080;50.908;6.916;2022-12-29T00:59:29;13.00;71.90
76263;DHT22;65080;50.908;6.916;2022-12-29T01:01:57;13.00;71.70
76263;DHT22;65080;50.908;6.916;2022-12-29T01:04:26;13.00;71.50
76263;DHT22;65080;50.908;6.916;2022-12-29T01:06:56;13.10;71.50
76263;DHT22;65080;50.908;6.916;2022-12-29T01:09:24;13.10;71.40
76263;DHT22;65080;50.908;6.916;2022-12-29T01:12:10;13.10;71.30
76263;DHT22;65080;50.908;6.916;2022-12-29T01:14:39;13.10;71.30
76263;DHT22;65080;50.908;6.916;2022-12-29T01:17:07;13.20;71.40
76263;DHT22;65080;50.908;6.916;2022-12-29T01:19:36;13.20;71.30
76263;DHT22;65080;50.908;6.916;2022-12-29T01:22:05;13.20;71.20
76263;DHT22;65080;50.908;6.916;2022-12-29T01:24:33;13.30;71.00
76263;DHT22;65080;50.908;6.916;2022-12-29T01:27:02;13.30;70.70
76263;DHT22;65080;50.908;6.916;2022-12-29T01:29:30;13.30;70.50
76263;DHT22;65080;50.908;6.916;2022-12-29T01:31:58;13.40;70.30
76263;DHT22;65080;50.908;6.916;2022-12-29T01:34:27;13.40;69.90
76263;DHT22;65080;50.908;6.916;2022-12-29T01:36:55;13.50;69.50
76263;DHT22;65080;50.908;6.916;2022-12-29T01:39:25;13.50;69.00
76263;DHT22;65080;50.908;6.916;2022-12-29T01:41:53;13.60;68.70
76263;DHT22;65080;50.908;6.916;2022-12-29T01:44:50;13.60;68.30
76263;DHT22;65080;50.908;6.916;2022-12-29T01:47:25;13.60;67.60
76263;DHT22;65080;50.908;6.916;2022-12-29T01:49:56;13.70;67.50
76263;DHT22;65080;50.908;6.916;2022-12-29T01:52:27;13.70;67.00
76263;DHT22;65080;50.908;6.916;2022-12-29T01:54:59;13.80;66.70
76263;DHT22;65080;50.908;6.916;2022-12-29T01:57:32;13.80;66.90
76263;DHT22;65080;50.908;6.916;2022-12-29T02:00:04;13.80;65.70
76263;DHT22;65080;50.908;6.916;2022-12-29T02:02:34;13.80;65.50
76263;DHT22;65080;50.908;6.916;2022-12-29T02:05:09;13.90;65.20
76263;DHT22;65080;50.908;6.916;2022-12-29T02:07:39;13.90;64.70
76263;DHT22;65080;50.908;6.916;2022-12-29T02:10:10;13.90;65.20
76263;DHT22;65080;50.908;6.916;2022-12-29T02:12:40;13.90;64.30
76263;DHT22;65080;50.908;6.916;2022-12-29T02:15:09;13.90;64.10
76263;DHT22;65080;50.908;6.916;2022-12-29T02:17:45;13.90;63.80
76263;DHT22;65080;50.908;6.916;2022-12-29T02:20:53;13.90;63.40
76263;DHT22;65080;50.908;6.916;2022-12-29T02:23:59;13.90;63.00
76263;DHT22;65080;50.908;6.916;2022-12-29T02:26:49;13.90;62.80
76263;DHT22;65080;50.908;6.916;2022-12-29T02:29:40;13.90;63.50
76263;DHT22;65080;50.908;6.916;2022-12-29T02:32:16;13.90;62.70
76263;DHT22;65080;50.908;6.916;2022-12-29T02:34:51;13.90;62.70
76263;DHT22;65080;50.908;6.916;2022-12-29T02:37:26;13.90;62.80
76263;DHT22;65080;50.908;6.916;2022-12-29T02:40:04;13.90;62.70
76263;DHT22;65080;50.908;6.916;2022-12-29T02:42:38;13.90;62.70
76263;DHT22;65080;50.908;6.916;2022-12-29T02:45:13;13.90;62.70
76263;DHT22;65080;50.908;6.916;2022-12-29T02:47:51;13.90;62.90
76263;DHT22;65080;50.908;6.916;2022-12-29T02:50:25;13.80;62.80
76263;DHT22;65080;50.908;6.916;2022-12-29T02:52:58;13.80;62.90
76263;DHT22;65080;50.908;6.916;2022-12-29T02:55:26;13.80;62.90
76263;DHT22;65080;50.908;6.916;2022-12-29T02:58:16;13.80;63.10
76263;DHT22;65080;50.908;6.916;2022-12-29T03:00:56;13.80;63.20
76263;DHT22;65080;50.908;6.916;2022-12-29T03:03:42;13.70;63.30
76263;DHT22;65080;50.908;6.916;2022-12-29T03:06:30;13.70;63.60
76263;DHT22;65080;50.908;6.916;2022-12-29T03:09:11;13.70;63.90
76263;DHT22;65080;50.908;6.916;2022-12-29T03:11:51;13.70;64.10
76263;DHT22;65080;50.908;6.916;2022-12-29T03:14:46;13.60;64.30
76263;DHT22;65080;50.908;6.916;2022-12-29T03:17:40;13.60;64.50
76263;DHT22;65080;50.908;6.916;2022-12-29T03:20:17;13.60;64.80
76263;DHT22;65080;50.908;6.916;2022-12-29T03:22:47;13.60;65.00
76263;DHT22;65080;50.908;6.916;2022-12-29T03:25:23;13.50;65.10
76263;DHT22;65080;50.908;6.916;2022-12-29T03:27:54;13.50;65.40
76263;DHT22;65080;50.908;6.916;2022-12-29T03:30:24;13.50;65.50
76263;DHT22;65080;50.908;6.916;2022-12-29T03:32:57;13.50;65.80
76263;DHT22;65080;50.908;6.916;2022-12-29T03:35:31;13.50;65.90
76263;DHT22;65080;50.908;6.916;2022-12-29T03:38:07;13.50;66.20
76263;DHT22;65080;50.908;6.916;2022-12-29T03:40:41;13.50;66.30
76263;DHT22;65080;50.908;6.916;2022-12-29T03:43:10;13.50;66.20
76263;DHT22;65080;50.908;6.916;2022-12-29T03:45:40;13.50;66.20
76263;DHT22;65080;50.908;6.916;2022-12-29T03:48:08;13.60;66.40
76263;DHT22;65080;50.908;6.916;2022-12-29T03:50:37;13.50;66.40
76263;DHT22;65080;50.908;6.916;2022-12-29T03:53:06;13.60;66.50
76263;DHT22;65080;50.908;6.916;2022-12-29T03:55:34;13.60;66.50
76263;DHT22;65080;50.908;6.916;2022-12-29T03:58:02;13.60;66.50
76263;DHT22;65080;50.908;6.916;2022-12-29T04:00:31;13.60;66.40
76263;DHT22;65080;50.908;6.916;2022-12-29T04:03:00;13.50;66.20
76263;DHT22;65080;50.908;6.916;2022-12-29T04:05:28;13.50;66.20
76263;DHT22;65080;50.908;6.916;2022-12-29T04:08:00;13.50;66.20
76263;DHT22;65080;50.908;6.916;2022-12-29T04:10:28;13.50;66.20
76263;DHT22;65080;50.908;6.916;2022-12-29T04:12:56;13.50;66.20
76263;DHT22;65080;50.908;6.916;2022-12-29T04:15:25;13.50;66.10
76263;DHT22;65080;50.908;6.916;2022-12-29T04:17:53;13.50;66.10
76263;DHT22;65080;50.908;6.916;2022-12-29T04:20:21;13.50;66.10
76263;DHT22;65080;50.908;6.916;2022-12-29T04:23:09;13.50;66.00
76263;DHT22;65080;50.908;6.916;2022-12-29T04:25:37;13.50;66.00
76263;DHT22;65080;50.908;6.916;2022-12-29T04:28:05;13.40;65.90
76263;DHT22;65080;50.908;6.916;2022-12-29T04:30:35;13.40;66.00
76263;DHT22;65080;50.908;6.916;2022-12-29T04:33:03;13.40;66.00
76263;DHT22;65080;50.908;6.916;2022-12-29T04:35:31;13.40;66.40
76263;DHT22;65080;50.908;6.916;2022-12-29T04:38:00;13.40;66.00
76263;DHT22;65080;50.908;6.916;2022-12-29T04:40:29;13.40;65.90
76263;DHT22;65080;50.908;6.916;2022-12-29T04:42:57;13.40;65.80
76263;DHT22;65080;50.908;6.916;2022-12-29T04:45:26;13.40;65.80
76263;DHT22;65080;50.908;6.916;2022-12-29T04:47:54;13.40;65.60
76263;DHT22;65080;50.908;6.916;2022-12-29T04:50:22;13.40;65.50
76263;DHT22;65080;50.908;6.916;2022-12-29T04:52:50;13.50;65.50
76263;DHT22;65080;50.908;6.916;2022-12-29T04:55:19;13.50;65.40
76263;DHT22;65080;50.908;6.916;2022-12-29T04:57:48;13.50;65.10
76263;DHT22;65080;50.908;6.916;2022-12-29T05:00:17;13.50;64.80
76263;DHT22;65080;50.908;6.916;2022-12-29T05:02:45;13.60;64.70
76263;DHT22;65080;50.908;6.916;2022-12-29T05:05:14;13.60;64.50
76263;DHT22;65080;50.908;6.916;2022-12-29T05:07:42;13.60;64.30
76263;DHT22;65080;50.908;6.916;2022-12-29T05:10:11;13.60;64.10
76263;DHT22;65080;50.908;6.916;2022-12-29T05:12:40;13.60;64.00
76263;DHT22;65080;50.908;6.916;2022-12-29T05:15:10;13.60;63.60
76263;DHT22;65080;50.908;6.916;2022-12-29T05:17:39;13.70;63.50
76263;DHT22;65080;50.908;6.916;2022-12-29T05:20:08;13.70;63.40
76263;DHT22;65080;50.908;6.916;2022-12-29T05:22:36;13.70;63.20
76263;DHT22;65080;50.908;6.916;2022-12-29T05:25:05;13.70;63.00
76263;DHT22;65080;50.908;6.916;2022-12-29T05:27:33;13.70;62.80
76263;DHT22;65080;50.908;6.916;2022-12-29T05:30:02;13.70;62.70
76263;DHT22;65080;50.908;6.916;2022-12-29T05:32:32;13.70;62.60
76263;DHT22;65080;50.908;6.916;2022-12-29T05:35:00;13.70;62.50
76263;DHT22;65080;50.908;6.916;2022-12-29T05:37:29;13.70;62.40
76263;DHT22;65080;50.908;6.916;2022-12-29T05:39:57;13.70;62.30
76263;DHT22;65080;50.908;6.916;2022-12-29T05:42:26;13.70;62.30
76263;DHT22;65080;50.908;6.916;2022-12-29T05:44:54;13.70;62.10
76263;DHT22;65080;50.908;6.916;2022-12-29T05:47:22;13.70;62.10
76263;DHT22;65080;50.908;6.916;2022-12-29T05:49:52;13.70;62.00
76263;DHT22;65080;50.908;6.916;2022-12-29T05:52:20;13.70;62.10
76263;DHT22;65080;50.908;6.916;2022-12-29T05:54:48;13.70;62.00
76263;DHT22;65080;50.908;6.916;2022-12-29T05:57:16;13.70;62.00
76263;DHT22;65080;50.908;6.916;2022-12-29T05:59:45;13.70;62.00
76263;DHT22;65080;50.908;6.916;2022-12-29T06:02:13;13.70;62.00
76263;DHT22;65080;50.908;6.916;2022-12-29T06:04:41;13.70;61.90
76263;DHT22;65080;50.908;6.916;2022-12-29T06:07:11;13.70;62.00
76263;DHT22;65080;50.908;6.916;2022-12-29T06:09:40;13.70;61.80
76263;DHT22;65080;50.908;6.916;2022-12-29T06:12:08;13.80;61.70
76263;DHT22;65080;50.908;6.916;2022-12-29T06:14:36;13.80;61.60
76263;DHT22;65080;50.908;6.916;2022-12-29T06:17:04;13.80;61.50
76263;DHT22;65080;50.908;6.916;2022-12-29T06:19:33;13.80;61.50
76263;DHT22;65080;50.908;6.916;2022-12-29T06:22:01;13.80;61.40
76263;DHT22;65080;50.908;6.916;2022-12-29T06:24:31;13.80;61.40
76263;DHT22;65080;50.908;6.916;2022-12-29T06:26:59;13.80;61.30
76263;DHT22;65080;50.908;6.916;2022-12-29T06:29:27;13.80;61.20
76263;DHT22;65080;50.908;6.916;2022-12-29T06:31:56;13.80;61.30
76263;DHT22;65080;50.908;6.916;2022-12-29T06:34:25;13.80;61.40
76263;DHT22;65080;50.908;6.916;2022-12-29T06:36:53;13.80;61.50
76263;DHT22;65080;50.908;6.916;2022-12-29T06:39:21;13.80;61.60
76263;DHT22;65080;50.908;6.916;2022-12-29T06:41:53;13.80;61.80
76263;DHT22;65080;50.908;6.916;2022-12-29T06:44:21;13.70;61.90
76263;DHT22;65080;50.908;6.916;2022-12-29T06:46:50;13.70;62.00
76263;DHT22;65080;50.908;6.916;2022-12-29T06:49:18;13.70;62.20
76263;DHT22;65080;50.908;6.916;2022-12-29T06:51:47;13.70;62.30
76263;DHT22;65080;50.908;6.916;2022-12-29T06:54:15;13.70;62.40
76263;DHT22;65080;50.908;6.916;2022-12-29T06:56:43;13.70;62.40
76263;DHT22;65080;50.908;6.916;2022-12-29T06:59:13;13.70;62.40
76263;DHT22;65080;50.908;6.916;2022-12-29T07:01:41;13.70;62.30
76263;DHT22;65080;50.908;6.916;2022-12-29T07:04:09;13.60;62.10
76263;DHT22;65080;50.908;6.916;2022-12-29T07:06:38;13.60;62.00
76263;DHT22;65080;50.908;6.916;2022-12-29T07:09:08;13.60;61.90
76263;DHT22;65080;50.908;6.916;2022-12-29T07:11:36;13.60;61.70
76263;DHT22;65080;50.908;6.916;2022-12-29T07:14:05;13.60;62.10
76263;DHT22;65080;50.908;6.916;2022-12-29T07:16:34;13.60;61.20
76263;DHT22;65080;50.908;6.916;2022-12-29T07:19:03;13.60;60.80
76263;DHT22;65080;50.908;6.916;2022-12-29T07:21:31;13.60;60.60
76263;DHT22;65080;50.908;6.916;2022-12-29T07:23:59;13.60;60.50
76263;DHT22;65080;50.908;6.916;2022-12-29T07:26:28;13.60;60.30
76263;DHT22;65080;50.908;6.916;2022-12-29T07:29:02;13.60;60.20
76263;DHT22;65080;50.908;6.916;2022-12-29T07:31:31;13.60;60.10
76263;DHT22;65080;50.908;6.916;2022-12-29T07:34:00;13.60;60.10
76263;DHT22;65080;50.908;6.916;2022-12-29T07:36:29;13.60;60.20
76263;DHT22;65080;50.908;6.916;2022-12-29T07:39:01;13.60;60.10
76263;DHT22;65080;50.908;6.916;2022-12-29T07:41:29;13.50;60.00
76263;DHT22;65080;50.908;6.916;2022-12-29T07:43:57;13.50;60.00
76263;DHT22;65080;50.908;6.916;2022-12-29T07:46:25;13.50;60.00
76263;DHT22;65080;50.908;6.916;2022-12-29T07:49:16;13.50;60.10
76263;DHT22;65080;50.908;6.916;2022-12-29T07:51:44;13.50;60.00
76263;DHT22;65080;50.908;6.916;2022-12-29T07:54:12;13.50;59.90
76263;DHT22;65080;50.908;6.916;2022-12-29T07:56:41;13.50;60.00
76263;DHT22;65080;50.908;6.916;2022-12-29T07:59:09;13.50;60.00
76263;DHT22;65080;50.908;6.916;2022-12-29T08:01:39;13.50;60.00
76263;DHT22;65080;50.908;6.916;2022-12-29T08:04:07;13.50;59.90
76263;DHT22;65080;50.908;6.916;2022-12-29T08:06:37;13.50;59.90
76263;DHT22;65080;50.908;6.916;2022-12-29T08:09:05;13.40;59.80
76263;DHT22;65080;50.908;6.916;2022-12-29T08:11:42;13.40;59.70
76263;DHT22;65080;50.908;6.916;2022-12-29T08:14:11;13.40;59.70
76263;DHT22;65080;50.908;6.916;2022-12-29T08:16:39;13.40;59.70
76263;DHT22;65080;50.908;6.916;2022-12-29T08:19:10;13.40;59.70
76263;DHT22;65080;50.908;6.916;2022-12-29T08:21:40;13.30;59.50
76263;DHT22;65080;50.908;6.916;2022-12-29T08:24:09;13.30;59.50
76263;DHT22;65080;50.908;6.916;2022-12-29T08:26:38;13.30;59.40
76263;DHT22;65080;50.908;6.916;2022-12-29T08:29:07;13.30;59.40
76263;DHT22;65080;50.908;6.916;2022-12-29T08:31:35;13.30;59.00
76263;DHT22;65080;50.908;6.916;2022-12-29T08:34:04;13.40;59.00
76263;DHT22;65080;50.908;6.916;2022-12-29T08:36:32;13.40;58.90
76263;DHT22;65080;50.908;6.916;2022-12-29T08:39:02;13.30;58.60
76263;DHT22;65080;50.908;6.916;2022-12-29T08:41:30;13.30;58.50
76263;DHT22;65080;50.908;6.916;2022-12-29T08:43:59;13.30;59.00
76263;DHT22;65080;50.908;6.916;2022-12-29T08:46:27;13.30;58.30
76263;DHT22;65080;50.908;6.916;2022-12-29T08:48:56;13.30;58.20
76263;DHT22;65080;50.908;6.916;2022-12-29T08:51:24;13.30;58.10
76263;DHT22;65080;50.908;6.916;2022-12-29T08:53:52;13.30;58.00
76263;DHT22;65080;50.908;6.916;2022-12-29T08:56:22;13.30;58.00
76263;DHT22;65080;50.908;6.916;2022-12-29T08:58:51;13.30;57.80
76263;DHT22;65080;50.908;6.916;2022-12-29T09:01:20;13.30;57.60
76263;DHT22;65080;50.908;6.916;2022-12-29T09:03:50;13.30;57.50
76263;DHT22;65080;50.908;6.916;2022-12-29T09:06:38;13.30;57.20
76263;DHT22;65080;50.908;6.916;2022-12-29T09:09:07;13.30;57.10
76263;DHT22;65080;50.908;6.916;2022-12-29T09:11:36;13.30;56.90
76263;DHT22;65080;50.908;6.916;2022-12-29T09:14:05;13.30;56.80
76263;DHT22;65080;50.908;6.916;2022-12-29T09:16:33;13.30;56.80
76263;DHT22;65080;50.908;6.916;2022-12-29T09:19:02;13.30;56.80
76263;DHT22;65080;50.908;6.916;2022-12-29T09:21:30;13.30;56.70
76263;DHT22;65080;50.908;6.916;2022-12-29T09:23:59;13.20;56.60
76263;DHT22;65080;50.908;6.916;2022-12-29T09:26:27;13.20;56.60
76263;DHT22;65080;50.908;6.916;2022-12-29T09:28:57;13.20;56.50
76263;DHT22;65080;50.908;6.916;2022-12-29T09:31:25;13.20;56.40
76263;DHT22;65080;50.908;6.916;2022-12-29T09:33:54;13.20;56.30
76263;DHT22;65080;50.908;6.916;2022-12-29T09:36:22;13.20;56.60
76263;DHT22;65080;50.908;6.916;2022-12-29T09:38:50;13.20;56.30
76263;DHT22;65080;50.908;6.916;2022-12-29T09:41:25;13.30;56.20
76263;DHT22;65080;50.908;6.916;2022-12-29T09:44:06;13.30;55.90
76263;DHT22;65080;50.908;6.916;2022-12-29T09:46:38;13.30;55.70
76263;DHT22;65080;50.908;6.916;2022-12-29T09:49:17;13.40;55.80
76263;DHT22;65080;50.908;6.916;2022-12-29T09:51:50;13.40;55.60
76263;DHT22;65080;50.908;6.916;2022-12-29T09:54:41;13.40;55.40
76263;DHT22;65080;50.908;6.916;2022-12-29T09:57:24;13.50;55.00
76263;DHT22;65080;50.908;6.916;2022-12-29T09:59:57;13.50;55.00
76263;DHT22;65080;50.908;6.916;2022-12-29T10:02:38;13.50;54.80
76263;DHT22;65080;50.908;6.916;2022-12-29T10:05:22;13.60;54.60
76263;DHT22;65080;50.908;6.916;2022-12-29T10:08:03;13.60;54.40
76263;DHT22;65080;50.908;6.916;2022-12-29T10:10:49;13.60;54.50
76263;DHT22;65080;50.908;6.916;2022-12-29T10:13:28;13.60;54.40
76263;DHT22;65080;50.908;6.916;2022-12-29T10:16:06;13.60;54.30
76263;DHT22;65080;50.908;6.916;2022-12-29T10:18:50;13.60;54.80
76263;DHT22;65080;50.908;6.916;2022-12-29T10:21:28;13.60;54.20
76263;DHT22;65080;50.908;6.916;2022-12-29T10:23:59;13.70;54.20
76263;DHT22;65080;50.908;6.916;2022-12-29T10:26:33;13.70;54.00
76263;DHT22;65080;50.908;6.916;2022-12-29T10:29:05;13.70;53.80
76263;DHT22;65080;50.908;6.916;2022-12-29T10:31:39;13.70;53.60
76263;DHT22;65080;50.908;6.916;2022-12-29T10:34:15;13.80;53.50
76263;DHT22;65080;50.908;6.916;2022-12-29T10:36:48;13.80;53.30
76263;DHT22;65080;50.908;6.916;2022-12-29T10:39:22;13.80;53.20
76263;DHT22;65080;50.908;6.916;2022-12-29T10:41:57;13.80;52.90
76263;DHT22;65080;50.908;6.916;2022-12-29T10:44:30;13.90;52.90
76263;DHT22;65080;50.908;6.916;2022-12-29T10:47:05;14.00;53.00
76263;DHT22;65080;50.908;6.916;2022-12-29T10:49:39;14.00;52.90
76263;DHT22;65080;50.908;6.916;2022-12-29T10:52:09;13.90;52.90
76263;DHT22;65080;50.908;6.916;2022-12-29T10:54:45;13.90;52.80
76263;DHT22;65080;50.908;6.916;2022-12-29T10:57:25;14.00;52.90
76263;DHT22;65080;50.908;6.916;2022-12-29T10:59:55;14.10;52.90
76263;DHT22;65080;50.908;6.916;2022-12-29T11:02:41;14.00;52.90
76263;DHT22;65080;50.908;6.916;2022-12-29T11:05:16;14.00;52.80
76263;DHT22;65080;50.908;6.916;2022-12-29T11:07:48;14.00;52.80
76263;DHT22;65080;50.908;6.916;2022-12-29T11:10:20;14.00;52.80
76263;DHT22;65080;50.908;6.916;2022-12-29T11:12:56;14.00;52.90
76263;DHT22;65080;50.908;6.916;2022-12-29T11:15:25;14.00;52.90
76263;DHT22;65080;50.908;6.916;2022-12-29T11:17:57;14.00;53.00
76263;DHT22;65080;50.908;6.916;2022-12-29T11:20:32;14.10;53.00
76263;DHT22;65080;50.908;6.916;2022-12-29T11:23:01;14.10;53.10
76263;DHT22;65080;50.908;6.916;2022-12-29T11:25:29;14.10;52.90
76263;DHT22;65080;50.908;6.916;2022-12-29T11:28:00;14.10;53.00
76263;DHT22;65080;50.908;6.916;2022-12-29T11:30:30;14.10;52.90
76263;DHT22;65080;50.908;6.916;2022-12-29T11:33:03;14.00;52.90
76263;DHT22;65080;50.908;6.916;2022-12-29T11:35:36;14.00;52.80
76263;DHT22;65080;50.908;6.916;2022-12-29T11:38:18;14.00;52.70
76263;DHT22;65080;50.908;6.916;2022-12-29T11:40:47;14.00;52.70
76263;DHT22;65080;50.908;6.916;2022-12-29T11:43:21;14.00;52.70
76263;DHT22;65080;50.908;6.916;2022-12-29T11:45:52;14.00;52.70
76263;DHT22;65080;50.908;6.916;2022-12-29T11:48:29;13.90;52.60
76263;DHT22;65080;50.908;6.916;2022-12-29T11:50:59;13.90;52.60
76263;DHT22;65080;50.908;6.916;2022-12-29T11:53:38;13.90;52.70
76263;DHT22;65080;50.908;6.916;2022-12-29T11:56:10;13.90;52.80
76263;DHT22;65080;50.908;6.916;2022-12-29T11:58:39;13.80;52.70
76263;DHT22;65080;50.908;6.916;2022-12-29T12:01:13;13.80;52.80
76263;DHT22;65080;50.908;6.916;2022-12-29T12:03:48;13.80;52.80
76263;DHT22;65080;50.908;6.916;2022-12-29T12:06:21;13.80;52.70
76263;DHT22;65080;50.908;6.916;2022-12-29T16:39:33;9.90;57.40
76263;DHT22;65080;50.908;6.916;2022-12-29T16:42:33;10.00;57.90
76263;DHT22;65080;50.908;6.916;2022-12-29T16:48:17;10.30;59.90
76263;DHT22;65080;50.908;6.916;2022-12-29T16:50:46;10.40;60.20
76263;DHT22;65080;50.908;6.916;2022-12-29T16:53:20;10.60;60.50
76263;DHT22;65080;50.908;6.916;2022-12-29T16:55:52;10.70;60.60
76263;DHT22;65080;50.908;6.916;2022-12-29T16:58:22;10.70;60.50
76263;DHT22;65080;50.908;6.916;2022-12-29T17:00:53;10.80;60.70
76263;DHT22;65080;50.908;6.916;2022-12-29T17:03:23;10.80;60.60
76263;DHT22;65080;50.908;6.916;2022-12-29T17:05:54;10.80;60.60
76263;DHT22;65080;50.908;6.916;2022-12-29T17:08:24;10.90;60.60
76263;DHT22;65080;50.908;6.916;2022-12-29T17:10:55;10.90;60.50
76263;DHT22;65080;50.908;6.916;2022-12-29T17:13:41;10.90;60.70
76263;DHT22;65080;50.908;6.916;2022-12-29T17:16:10;11.00;60.40
76263;DHT22;65080;50.908;6.916;2022-12-29T17:18:39;11.00;60.30
76263;DHT22;65080;50.908;6.916;2022-12-29T17:21:08;11.00;60.20
76263;DHT22;65080;50.908;6.916;2022-12-29T17:23:36;11.00;60.10
76263;DHT22;65080;50.908;6.916;2022-12-29T17:26:07;11.00;60.00
76263;DHT22;65080;50.908;6.916;2022-12-29T17:28:36;11.00;60.00
76263;DHT22;65080;50.908;6.916;2022-12-29T17:31:05;11.10;60.00
76263;DHT22;65080;50.908;6.916;2022-12-29T17:33:37;11.10;59.80
76263;DHT22;65080;50.908;6.916;2022-12-29T17:36:06;11.10;59.70
76263;DHT22;65080;50.908;6.916;2022-12-29T17:38:35;11.10;59.60
76263;DHT22;65080;50.908;6.916;2022-12-29T17:41:03;11.10;59.50
76263;DHT22;65080;50.908;6.916;2022-12-29T17:43:37;11.10;59.50
76263;DHT22;65080;50.908;6.916;2022-12-29T17:46:06;11.10;59.40
76263;DHT22;65080;50.908;6.916;2022-12-29T17:48:36;11.10;59.40
76263;DHT22;65080;50.908;6.916;2022-12-29T17:51:04;11.10;59.40
76263;DHT22;65080;50.908;6.916;2022-12-29T17:53:34;11.10;59.40
76263;DHT22;65080;50.908;6.916;2022-12-29T17:56:02;11.10;59.40
76263;DHT22;65080;50.908;6.916;2022-12-29T17:58:32;11.10;59.30
76263;DHT22;65080;50.908;6.916;2022-12-29T18:01:02;11.10;59.40
76263;DHT22;65080;50.908;6.916;2022-12-29T18:03:34;11.10;59.40
76263;DHT22;65080;50.908;6.916;2022-12-29T18:06:03;11.10;59.40
76263;DHT22;65080;50.908;6.916;2022-12-29T18:08:35;11.10;59.50
76263;DHT22;65080;50.908;6.916;2022-12-29T18:11:05;11.10;59.40
76263;DHT22;65080;50.908;6.916;2022-12-29T18:13:39;11.10;59.40
76263;DHT22;65080;50.908;6.916;2022-12-29T18:16:14;11.10;59.50
76263;DHT22;65080;50.908;6.916;2022-12-29T18:18:43;11.10;59.50
76263;DHT22;65080;50.908;6.916;2022-12-29T18:21:16;11.00;59.40
76263;DHT22;65080;50.908;6.916;2022-12-29T18:23:46;11.10;59.50
76263;DHT22;65080;50.908;6.916;2022-12-29T18:26:17;11.10;59.50
76263;DHT22;65080;50.908;6.916;2022-12-29T18:28:53;11.00;59.40
76263;DHT22;65080;50.908;6.916;2022-12-29T18:31:24;11.10;60.00
76263;DHT22;65080;50.908;6.916;2022-12-29T18:33:53;11.00;59.10
76263;DHT22;65080;50.908;6.916;2022-12-29T18:36:22;11.10;59.10
76263;DHT22;65080;50.908;6.916;2022-12-29T18:38:50;11.00;58.90
76263;DHT22;65080;50.908;6.916;2022-12-29T18:41:22;11.00;58.70
76263;DHT22;65080;50.908;6.916;2022-12-29T18:43:52;11.00;58.90
76263;DHT22;65080;50.908;6.916;2022-12-29T18:46:22;10.90;59.00
76263;DHT22;65080;50.908;6.916;2022-12-29T18:48:50;10.80;59.10
76263;DHT22;65080;50.908;6.916;2022-12-29T18:51:21;10.70;59.70
76263;DHT22;65080;50.908;6.916;2022-12-29T18:53:50;10.70;59.40
76263;DHT22;65080;50.908;6.916;2022-12-29T18:56:19;10.70;59.50
76263;DHT22;65080;50.908;6.916;2022-12-29T18:58:48;10.70;59.70
76263;DHT22;65080;50.908;6.916;2022-12-29T19:01:23;10.70;59.80
76263;DHT22;65080;50.908;6.916;2022-12-29T19:03:52;10.70;60.00
76263;DHT22;65080;50.908;6.916;2022-12-29T19:06:20;10.70;60.90
76263;DHT22;65080;50.908;6.916;2022-12-29T19:08:52;10.70;60.20
76263;DHT22;65080;50.908;6.916;2022-12-29T19:11:21;10.70;60.20
76263;DHT22;65080;50.908;6.916;2022-12-29T19:13:50;10.70;60.10
76263;DHT22;65080;50.908;6.916;2022-12-29T19:16:20;10.70;60.00
76263;DHT22;65080;50.908;6.916;2022-12-29T19:18:51;10.70;59.90
76263;DHT22;65080;50.908;6.916;2022-12-29T19:21:35;10.70;59.80
76263;DHT22;65080;50.908;6.916;2022-12-29T19:24:04;10.70;59.80
76263;DHT22;65080;50.908;6.916;2022-12-29T19:26:37;10.60;59.60
76263;DHT22;65080;50.908;6.916;2022-12-29T19:29:10;10.60;59.70
76263;DHT22;65080;50.908;6.916;2022-12-29T19:31:40;10.60;59.80
76263;DHT22;65080;50.908;6.916;2022-12-29T19:34:12;10.50;59.70
76263;DHT22;65080;50.908;6.916;2022-12-29T19:36:42;10.50;59.90
76263;DHT22;65080;50.908;6.916;2022-12-29T19:39:10;10.50;59.90
76263;DHT22;65080;50.908;6.916;2022-12-29T19:41:39;10.50;59.90
76263;DHT22;65080;50.908;6.916;2022-12-29T19:44:07;10.50;60.00
76263;DHT22;65080;50.908;6.916;2022-12-29T19:46:36;10.50;59.90
76263;DHT22;65080;50.908;6.916;2022-12-29T19:49:04;10.50;60.00
76263;DHT22;65080;50.908;6.916;2022-12-29T19:51:34;10.50;60.10
76263;DHT22;65080;50.908;6.916;2022-12-29T19:54:02;10.50;59.90
76263;DHT22;65080;50.908;6.916;2022-12-29T19:56:31;10.40;59.90
76263;DHT22;65080;50.908;6.916;2022-12-29T19:59:00;10.40;60.00
76263;DHT22;65080;50.908;6.916;2022-12-29T20:01:28;10.40;60.10
76263;DHT22;65080;50.908;6.916;2022-12-29T20:03:57;10.30;60.00
76263;DHT22;65080;50.908;6.916;2022-12-29T20:06:26;10.30;60.10
76263;DHT22;65080;50.908;6.916;2022-12-29T20:08:56;10.20;60.10
76263;DHT22;65080;50.908;6.916;2022-12-29T20:11:24;10.20;60.30
76263;DHT22;65080;50.908;6.916;2022-12-29T20:13:52;10.20;60.40
76263;DHT22;65080;50.908;6.916;2022-12-29T20:16:21;10.10;60.40
76263;DHT22;65080;50.908;6.916;2022-12-29T20:18:53;10.10;60.70
76263;DHT22;65080;50.908;6.916;2022-12-29T20:21:29;10.00;61.30
76263;DHT22;65080;50.908;6.916;2022-12-29T20:24:00;10.00;60.80
76263;DHT22;65080;50.908;6.916;2022-12-29T20:26:28;10.00;60.90
76263;DHT22;65080;50.908;6.916;2022-12-29T20:28:57;10.10;61.00
76263;DHT22;65080;50.908;6.916;2022-12-29T20:31:29;10.10;61.00
76263;DHT22;65080;50.908;6.916;2022-12-29T20:33:57;10.10;60.60